createdAt,value
2023-01-22T00:01:09.204Z,7.97
2023-01-22T00:03:36.844Z,8.32
2023-01-22T00:06:03.435Z,8.95
2023-01-22T00:08:29.941Z,8.35
2023-01-22T00:10:56.588Z,8.23
2023-01-22T00:13:24.709Z,9.18
2023-01-22T00:15:51.570Z,9.32
2023-01-22T00:18:21.619Z,8.75
2023-01-22T00:20:49.385Z,8.70
2023-01-22T00:23:20.609Z,7.90
2023-01-22T00:25:47.281Z,8.07
2023-01-22T00:28:14.305Z,6.65
2023-01-22T00:30:43.309Z,7.57
2023-01-22T00:33:09.806Z,8.07
2023-01-22T00:35:36.290Z,8.18
2023-01-22T00:38:03.844Z,8.27
2023-01-22T00:40:32.675Z,8.73
2023-01-22T00:42:59.098Z,8.45
2023-01-22T00:45:25.495Z,8.80
2023-01-22T00:47:56.794Z,9.30
2023-01-22T00:50:23.331Z,10.55
2023-01-22T00:52:50.077Z,8.57
2023-01-22T00:55:16.751Z,10.07
2023-01-22T00:57:43.603Z,10.07
2023-01-22T01:00:11.718Z,10.75
2023-01-22T01:02:58.652Z,9.77
2023-01-22T01:05:25.930Z,9.80
2023-01-22T01:07:52.709Z,9.88
2023-01-22T01:10:20.127Z,8.88
2023-01-22T01:12:46.980Z,9.32
2023-01-22T01:15:15.795Z,8.20
2023-01-22T01:17:42.566Z,9.63
2023-01-22T01:20:10.175Z,8.73
2023-01-22T01:22:36.716Z,9.43
2023-01-22T01:25:03.719Z,9.70
2023-01-22T01:27:31.756Z,10.25
2023-01-22T01:30:00.871Z,9.55
2023-01-22T01:32:30.487Z,10.23
2023-01-22T01:34:59.239Z,10.27
2023-01-22T01:37:28.481Z,9.93
2023-01-22T01:39:54.992Z,11.35
2023-01-22T01:42:29.151Z,11.43
2023-01-22T01:45:25.940Z,11.05
2023-01-22T01:47:59.203Z,10.18
2023-01-22T01:50:28.252Z,9.60
2023-01-22T01:52:56.466Z,9.55
2023-01-22T01:55:28.708Z,9.10
2023-01-22T01:58:00.516Z,9.18
2023-01-22T02:00:31.041Z,9.60
2023-01-22T02:02:57.667Z,8.93
2023-01-22T02:05:27.662Z,8.68
2023-01-22T02:07:54.226Z,9.00
2023-01-22T02:10:20.808Z,10.60
2023-01-22T02:12:47.272Z,14.48
2023-01-22T02:15:14.338Z,13.55
2023-01-22T02:17:40.808Z,13.00
2023-01-22T02:20:07.619Z,11.43
2023-01-22T02:22:40.336Z,12.63
2023-01-22T02:25:10.003Z,11.38
2023-01-22T02:27:36.508Z,12.85
2023-01-22T02:30:03.056Z,10.13
2023-01-22T02:32:29.500Z,10.43
2023-01-22T02:34:58.429Z,9.38
2023-01-22T02:37:24.993Z,10.68
2023-01-22T02:39:51.482Z,9.27
2023-01-22T02:42:18.098Z,8.73
2023-01-22T02:44:47.095Z,9.00
2023-01-22T02:47:13.667Z,8.75
2023-01-22T02:49:40.085Z,9.02
2023-01-22T02:52:06.766Z,9.23
2023-01-22T02:54:33.247Z,10.63
2023-01-22T02:56:59.661Z,8.27
2023-01-22T02:59:29.300Z,7.85
2023-01-22T03:01:57.362Z,8.95
2023-01-22T03:04:24.620Z,8.07
2023-01-22T03:06:51.055Z,9.63
2023-01-22T03:09:22.793Z,10.23
2023-01-22T03:11:49.377Z,9.82
2023-01-22T03:14:34.897Z,9.98
2023-01-22T03:17:19.993Z,10.25
2023-01-22T03:20:05.392Z,9.43
2023-01-22T03:22:32.428Z,10.15
2023-01-22T03:25:01.438Z,9.50
2023-01-22T03:27:30.121Z,8.13
2023-01-22T03:29:59.278Z,7.30
2023-01-22T03:32:25.859Z,8.70
2023-01-22T03:34:53.848Z,7.38
2023-01-22T03:37:21.063Z,7.57
2023-01-22T03:39:48.297Z,6.40
2023-01-22T03:42:14.978Z,7.80
2023-01-22T03:44:41.604Z,7.45
2023-01-22T03:47:08.666Z,7.45
2023-01-22T03:49:35.306Z,7.53
2023-01-22T03:52:01.820Z,6.32
2023-01-22T03:54:28.205Z,6.72
2023-01-22T03:56:55.281Z,7.35
2023-01-22T03:59:25.038Z,7.18
2023-01-22T04:01:53.576Z,7.78
2023-01-22T04:04:20.398Z,8.10
2023-01-22T04:06:49.436Z,7.40
2023-01-22T04:09:16.275Z,6.60
2023-01-22T04:11:43.322Z,7.32
2023-01-22T04:14:12.937Z,7.10
2023-01-22T04:16:39.919Z,6.60
2023-01-22T04:19:06.527Z,6.25
2023-01-22T04:21:33.025Z,7.00
2023-01-22T04:23:59.839Z,7.30
2023-01-22T04:26:28.718Z,5.63
2023-01-22T04:28:56.364Z,6.85
2023-01-22T04:31:23.200Z,6.70
2023-01-22T04:33:52.449Z,6.53
2023-01-22T04:36:19.343Z,6.07
2023-01-22T04:38:45.859Z,6.22
2023-01-22T04:41:12.940Z,5.88
2023-01-22T04:43:44.292Z,6.90
2023-01-22T04:46:11.560Z,6.47
2023-01-22T04:48:38.371Z,6.68
2023-01-22T04:51:07.585Z,6.07
2023-01-22T04:53:34.407Z,6.43
2023-01-22T04:56:01.283Z,7.32
2023-01-22T04:58:27.837Z,6.15
2023-01-22T05:00:56.568Z,6.97
2023-01-22T05:03:26.636Z,7.72
2023-01-22T05:05:53.785Z,6.35
2023-01-22T05:08:20.441Z,7.65
2023-01-22T05:10:49.342Z,5.78
2023-01-22T05:13:16.070Z,6.10
2023-01-22T05:15:42.522Z,6.35
2023-01-22T05:18:09.468Z,5.70
2023-01-22T05:20:36.114Z,6.25
2023-01-22T05:23:02.953Z,5.97
2023-01-22T05:25:29.842Z,5.47
2023-01-22T05:27:56.271Z,5.95
2023-01-22T05:30:22.833Z,5.40
2023-01-22T05:32:49.309Z,5.40
2023-01-22T05:35:15.826Z,6.75
2023-01-22T05:37:42.829Z,6.65
2023-01-22T05:40:10.045Z,7.05
2023-01-22T05:42:37.033Z,6.03
2023-01-22T05:45:04.072Z,5.85
2023-01-22T05:47:30.519Z,5.78
2023-01-22T05:49:57.049Z,4.72
2023-01-22T05:52:23.661Z,5.85
2023-01-22T05:54:50.403Z,5.18
2023-01-22T05:57:16.808Z,5.72
2023-01-22T05:59:43.339Z,6.25
2023-01-22T06:02:10.165Z,4.20
2023-01-22T06:04:36.747Z,5.60
2023-01-22T06:07:03.190Z,5.63
2023-01-22T06:09:32.820Z,5.43
2023-01-22T06:11:59.333Z,4.57
2023-01-22T06:14:25.765Z,5.20
2023-01-22T06:16:52.721Z,4.47
2023-01-22T06:19:19.145Z,5.30
2023-01-22T06:21:45.635Z,5.22
2023-01-22T06:24:12.167Z,8.68
2023-01-22T06:26:39.014Z,6.25
2023-01-22T06:29:08.364Z,4.88
2023-01-22T06:31:34.965Z,4.80
2023-01-22T06:34:01.572Z,5.15
2023-01-22T06:36:27.942Z,5.50
2023-01-22T06:38:54.408Z,4.75
2023-01-22T06:41:23.252Z,4.95
2023-01-22T06:43:52.759Z,5.72
2023-01-22T06:46:21.710Z,4.47
2023-01-22T06:48:49.899Z,5.75
2023-01-22T06:51:17.044Z,5.10
2023-01-22T06:53:43.842Z,5.80
2023-01-22T06:56:10.308Z,5.80
2023-01-22T06:58:37.511Z,6.30
2023-01-22T07:01:06.749Z,6.00
2023-01-22T07:03:33.901Z,5.55
2023-01-22T07:06:04.358Z,5.55
2023-01-22T07:08:33.422Z,5.38
2023-01-22T07:11:01.009Z,4.60
2023-01-22T07:13:27.889Z,4.82
2023-01-22T07:15:54.568Z,5.80
2023-01-22T07:18:24.155Z,6.00
2023-01-22T07:20:56.770Z,6.22
2023-01-22T07:23:23.392Z,5.03
2023-01-22T07:25:51.820Z,6.45
2023-01-22T07:28:18.351Z,6.20
2023-01-22T07:30:48.131Z,6.32
2023-01-22T07:33:20.054Z,6.32
2023-01-22T07:35:55.408Z,6.28
2023-01-22T07:38:22.116Z,4.25
2023-01-22T07:40:49.125Z,4.60
2023-01-22T07:43:16.282Z,4.65
2023-01-22T07:45:42.696Z,4.45
2023-01-22T07:48:10.760Z,5.47
2023-01-22T07:50:40.090Z,4.63
2023-01-22T07:53:08.130Z,4.55
2023-01-22T07:55:34.601Z,5.28
2023-01-22T07:58:04.351Z,4.43
2023-01-22T08:00:35.507Z,4.50
2023-01-22T08:03:04.482Z,4.35
2023-01-22T08:05:31.003Z,4.40
2023-01-22T08:07:57.431Z,4.65
2023-01-22T08:10:26.136Z,4.05
2023-01-22T08:12:55.593Z,4.30
2023-01-22T08:15:22.563Z,4.35
2023-01-22T08:17:51.034Z,3.92
2023-01-22T08:20:18.068Z,4.40
2023-01-22T08:22:45.411Z,4.45
2023-01-22T08:25:11.862Z,4.22
2023-01-22T08:27:38.428Z,4.35
2023-01-22T08:30:05.874Z,4.82
2023-01-22T08:32:32.337Z,7.22
2023-01-22T08:34:58.879Z,4.97
2023-01-22T08:37:26.020Z,8.10
2023-01-22T08:39:52.485Z,4.25
2023-01-22T08:42:24.048Z,5.68
2023-01-22T08:44:50.451Z,5.93
2023-01-22T08:47:17.057Z,10.13
2023-01-22T08:49:43.696Z,7.78
2023-01-22T08:52:10.316Z,7.40
2023-01-22T08:54:39.181Z,7.28
2023-01-22T08:57:05.553Z,9.00
2023-01-22T08:59:32.445Z,7.32
2023-01-22T09:01:59.931Z,6.07
2023-01-22T09:04:26.721Z,5.70
2023-01-22T09:06:53.230Z,5.75
2023-01-22T09:09:19.586Z,5.72
2023-01-22T09:11:46.800Z,5.18
2023-01-22T09:14:18.445Z,6.25
2023-01-22T09:16:45.096Z,5.07
2023-01-22T09:19:12.057Z,4.88
2023-01-22T09:21:38.743Z,6.20
2023-01-22T09:24:06.623Z,4.03
2023-01-22T09:26:33.792Z,6.25
2023-01-22T09:29:01.315Z,4.65
2023-01-22T09:31:30.611Z,4.85
2023-01-22T09:33:57.006Z,4.82
2023-01-22T09:36:23.682Z,4.95
2023-01-22T09:38:50.594Z,3.60
2023-01-22T09:41:39.067Z,4.68
2023-01-22T09:44:12.857Z,5.32
2023-01-22T09:46:44.521Z,5.03
2023-01-22T09:49:17.964Z,5.20
2023-01-22T09:52:00.578Z,5.93
2023-01-22T09:54:29.375Z,9.30
2023-01-22T09:56:58.483Z,7.00
2023-01-22T09:59:48.914Z,4.80
2023-01-22T10:02:28.037Z,7.72
2023-01-22T10:05:00.937Z,5.10
2023-01-22T10:07:39.631Z,7.95
2023-01-22T10:10:18.631Z,3.97
2023-01-22T10:12:51.118Z,4.72
2023-01-22T10:15:22.287Z,3.95
2023-01-22T10:17:49.171Z,4.35
2023-01-22T10:20:18.791Z,3.85
2023-01-22T10:22:45.592Z,3.85
2023-01-22T10:25:16.571Z,3.42
2023-01-22T10:27:44.784Z,3.78
2023-01-22T10:30:14.520Z,3.60
2023-01-22T10:32:41.000Z,3.55
2023-01-22T10:35:18.311Z,3.50
2023-01-22T10:37:48.734Z,4.00
2023-01-22T10:40:30.981Z,3.63
2023-01-22T10:43:17.650Z,4.78
2023-01-22T10:46:01.464Z,3.63
2023-01-22T10:48:27.921Z,3.53
2023-01-22T10:51:11.997Z,3.67
2023-01-22T10:53:45.607Z,3.88
2023-01-22T10:56:13.034Z,3.78
2023-01-22T10:58:46.048Z,5.00
2023-01-22T11:01:26.978Z,4.07
2023-01-22T11:03:53.533Z,4.15
2023-01-22T11:06:30.076Z,4.07
2023-01-22T11:09:23.847Z,3.95
2023-01-22T11:12:18.262Z,3.45
2023-01-22T11:14:47.781Z,3.72
2023-01-22T11:17:27.540Z,3.45
2023-01-22T11:20:02.783Z,3.88
2023-01-22T11:22:35.196Z,2.95
2023-01-22T11:27:49.887Z,3.20
2023-01-22T11:30:37.288Z,3.17
2023-01-22T11:33:21.501Z,3.70
2023-01-22T11:35:56.207Z,4.05
2023-01-22T11:38:38.579Z,3.47
2023-01-22T11:41:16.432Z,3.35
2023-01-22T11:44:20.511Z,3.13
2023-01-22T11:47:04.704Z,3.05
2023-01-22T11:49:55.421Z,3.80
2023-01-22T11:52:37.320Z,3.63
2023-01-22T11:55:40.964Z,3.25
2023-01-22T11:58:24.436Z,3.63
2023-01-22T12:01:08.616Z,4.53
2023-01-22T12:04:10.461Z,4.90
2023-01-22T12:07:11.889Z,3.90
2023-01-22T12:09:56.239Z,4.45
2023-01-22T12:12:43.963Z,4.15
2023-01-22T12:15:34.401Z,4.25
2023-01-22T12:18:03.683Z,4.28
2023-01-22T12:21:05.848Z,3.65
2023-01-22T12:23:38.130Z,4.17
2023-01-22T12:26:04.674Z,3.85
2023-01-22T12:28:34.642Z,3.80
2023-01-22T12:31:05.402Z,3.85
2023-01-22T12:33:38.192Z,3.58
2023-01-22T12:36:07.952Z,2.83
2023-01-22T12:38:56.081Z,3.45
2023-01-22T12:41:52.296Z,3.85
2023-01-22T12:44:46.135Z,3.85
2023-01-22T12:47:21.824Z,3.50
2023-01-22T12:49:52.287Z,3.42
2023-01-22T12:52:27.966Z,3.38
2023-01-22T12:54:55.597Z,3.25
2023-01-22T12:57:21.985Z,3.42
2023-01-22T12:59:54.496Z,3.17
2023-01-22T13:02:32.025Z,3.03
2023-01-22T13:05:12.670Z,3.20
2023-01-22T13:07:43.019Z,4.68
2023-01-22T13:10:26.519Z,2.95
2023-01-22T13:13:03.176Z,2.67
2023-01-22T13:15:37.364Z,3.30
2023-01-22T13:18:19.321Z,6.28
2023-01-22T13:20:56.708Z,5.03
2023-01-22T13:23:26.434Z,4.40
2023-01-22T13:25:57.141Z,4.63
2023-01-22T13:28:25.297Z,5.53
2023-01-22T13:31:13.371Z,4.30
2023-01-22T13:33:39.866Z,7.20
2023-01-22T13:36:14.956Z,3.50
2023-01-22T13:38:41.439Z,4.70
2023-01-22T13:41:10.991Z,3.60
2023-01-22T13:43:39.490Z,4.43
2023-01-22T13:46:07.043Z,4.10
2023-01-22T13:48:36.178Z,4.00
2023-01-22T13:51:14.440Z,3.50
2023-01-22T13:53:45.777Z,2.90
2023-01-22T13:56:17.112Z,4.15
2023-01-22T13:58:48.870Z,4.72
2023-01-22T14:01:33.555Z,6.30
2023-01-22T14:04:24.530Z,5.95
2023-01-22T14:06:51.160Z,3.72
2023-01-22T14:09:31.286Z,4.15
2023-01-22T14:11:59.387Z,3.60
2023-01-22T14:14:31.029Z,3.80
2023-01-22T14:16:57.506Z,3.67
2023-01-22T14:19:23.978Z,4.10
2023-01-22T14:21:50.390Z,3.75
2023-01-22T14:24:16.870Z,3.80
2023-01-22T14:26:43.599Z,4.47
2023-01-22T14:29:10.054Z,3.25
2023-01-22T14:31:39.387Z,3.20
2023-01-22T14:34:06.048Z,3.42
2023-01-22T14:36:33.302Z,3.45
2023-01-22T14:39:00.249Z,3.95
2023-01-22T14:41:27.210Z,3.95
2023-01-22T14:43:53.716Z,4.00
2023-01-22T14:46:20.277Z,3.53
2023-01-22T14:48:47.394Z,4.50
2023-01-22T14:51:14.094Z,4.00
2023-01-22T14:53:40.647Z,4.53
2023-01-22T14:56:07.491Z,4.30
2023-01-22T14:58:33.917Z,4.10
2023-01-22T15:01:13.325Z,3.65
2023-01-22T15:03:39.824Z,3.90
2023-01-22T15:06:06.268Z,4.82
2023-01-22T15:08:32.666Z,4.38
2023-01-22T15:11:02.961Z,4.38
2023-01-22T15:13:29.339Z,3.78
2023-01-22T15:15:56.141Z,4.25
2023-01-22T15:18:22.695Z,4.07
2023-01-22T15:20:49.331Z,4.30
2023-01-22T15:23:16.378Z,3.78
2023-01-22T15:25:42.816Z,4.40
2023-01-22T15:28:09.219Z,4.35
2023-01-22T15:30:40.492Z,4.30
2023-01-22T15:33:07.558Z,6.00
2023-01-22T15:35:34.222Z,4.40
2023-01-22T15:38:05.906Z,3.75
2023-01-22T15:40:32.449Z,4.50
2023-01-22T15:42:58.854Z,4.50
2023-01-22T15:45:25.490Z,4.45
2023-01-22T15:47:53.552Z,4.55
2023-01-22T15:50:21.460Z,4.97
2023-01-22T15:52:55.020Z,5.45
2023-01-22T15:55:21.753Z,4.22
2023-01-22T15:57:48.313Z,4.82
2023-01-22T16:00:15.390Z,4.60
2023-01-22T16:02:42.306Z,5.57
2023-01-22T16:05:13.102Z,5.22
2023-01-22T16:07:39.567Z,5.13
2023-01-22T16:10:06.249Z,4.78
2023-01-22T16:12:34.810Z,5.47
2023-01-22T16:15:01.419Z,5.03
2023-01-22T16:17:27.953Z,5.10
2023-01-22T16:19:54.340Z,4.28
2023-01-22T16:22:23.424Z,4.88
2023-01-22T16:24:52.203Z,4.38
2023-01-22T16:27:18.746Z,5.95
2023-01-22T16:29:47.847Z,5.20
2023-01-22T16:32:14.293Z,5.47
2023-01-22T16:34:42.929Z,6.18
2023-01-22T16:37:09.360Z,7.57
2023-01-22T16:39:36.733Z,6.13
2023-01-22T16:42:03.462Z,6.07
2023-01-22T16:44:33.767Z,5.65
2023-01-22T16:47:00.795Z,6.07
2023-01-22T16:49:32.702Z,5.13
2023-01-22T16:52:21.975Z,4.78
2023-01-22T16:54:49.811Z,5.93
2023-01-22T16:57:18.129Z,7.32
2023-01-22T16:59:47.521Z,9.82
2023-01-22T17:02:16.473Z,15.38
2023-01-22T17:04:54.339Z,16.52
2023-01-22T17:07:33.283Z,10.98
2023-01-22T17:10:03.647Z,9.95
2023-01-22T17:12:33.909Z,6.43
2023-01-22T17:15:03.587Z,9.23
2023-01-22T17:17:32.583Z,7.55
2023-01-22T17:19:59.248Z,6.30
2023-01-22T17:22:26.593Z,6.70
2023-01-22T17:24:53.538Z,6.05
2023-01-22T17:27:21.609Z,6.90
2023-01-22T17:29:53.223Z,8.00
2023-01-22T17:32:20.652Z,7.67
2023-01-22T17:34:47.105Z,8.00
2023-01-22T17:37:13.922Z,7.20
2023-01-22T17:39:42.815Z,6.65
2023-01-22T17:42:09.515Z,6.13
2023-01-22T17:44:36.040Z,6.22
2023-01-22T17:47:07.357Z,6.18
2023-01-22T17:49:36.123Z,6.13
2023-01-22T17:52:03.283Z,6.47
2023-01-22T17:54:30.076Z,6.43
2023-01-22T17:56:56.939Z,6.90
2023-01-22T17:59:25.836Z,6.72
2023-01-22T18:01:54.712Z,7.20
2023-01-22T18:04:23.940Z,7.88
2023-01-22T18:06:50.376Z,8.73
2023-01-22T18:09:20.679Z,9.43
2023-01-22T18:11:47.591Z,8.63
2023-01-22T18:14:21.715Z,9.23
2023-01-22T18:16:50.751Z,9.18
2023-01-22T18:19:22.793Z,9.20
2023-01-22T18:21:49.662Z,9.63
2023-01-22T18:24:23.059Z,9.52
2023-01-22T18:26:50.588Z,9.35
2023-01-22T18:29:17.076Z,8.30
2023-01-22T18:31:44.477Z,7.85
2023-01-22T18:34:14.490Z,8.98
2023-01-22T18:36:42.395Z,7.65
2023-01-22T18:39:12.729Z,7.07
2023-01-22T18:41:40.720Z,7.20
2023-01-22T18:44:08.747Z,6.60
2023-01-22T18:46:41.464Z,7.90
2023-01-22T18:49:12.259Z,6.28
2023-01-22T18:51:41.843Z,7.22
2023-01-22T18:54:13.428Z,7.15
2023-01-22T18:56:42.587Z,7.60
2023-01-22T18:59:09.148Z,7.65
2023-01-22T19:01:38.553Z,7.57
2023-01-22T19:04:09.769Z,9.40
2023-01-22T19:06:37.918Z,9.82
2023-01-22T19:09:09.506Z,8.48
2023-01-22T19:11:39.227Z,10.17
2023-01-22T19:14:09.099Z,11.13
2023-01-22T19:16:37.470Z,10.43
2023-01-22T19:19:11.266Z,8.98
2023-01-22T19:21:43.537Z,7.80
2023-01-22T19:24:11.559Z,7.47
2023-01-22T19:26:38.399Z,6.93
2023-01-22T19:29:09.407Z,6.78
2023-01-22T19:31:40.759Z,8.10
2023-01-22T19:34:09.077Z,7.20
2023-01-22T19:36:40.442Z,7.63
2023-01-22T19:39:13.617Z,6.95
2023-01-22T19:41:41.234Z,7.63
2023-01-22T19:44:09.673Z,7.53
2023-01-22T19:46:39.366Z,6.97
2023-01-22T19:49:06.926Z,6.97
2023-01-22T19:51:36.022Z,7.60
2023-01-22T19:54:04.596Z,6.07
2023-01-22T19:56:33.734Z,6.30
2023-01-22T19:59:05.812Z,6.82
2023-01-22T20:01:36.736Z,6.93
2023-01-22T20:04:07.255Z,6.65
2023-01-22T20:06:33.751Z,7.75
2023-01-22T20:09:03.607Z,7.47
2023-01-22T20:11:32.670Z,7.88
2023-01-22T20:13:59.208Z,7.78
2023-01-22T20:16:28.265Z,7.68
2023-01-22T20:18:56.883Z,6.45
2023-01-22T20:21:25.333Z,7.63
2023-01-22T20:23:52.544Z,8.25
2023-01-22T20:26:21.411Z,7.57
2023-01-22T20:28:51.152Z,6.57
2023-01-22T20:31:23.063Z,6.47
2023-01-22T20:33:54.652Z,7.57
2023-01-22T20:36:24.477Z,10.00
2023-01-22T20:38:53.279Z,6.60
2023-01-22T20:41:21.628Z,7.57
2023-01-22T20:43:48.357Z,7.25
2023-01-22T20:46:20.563Z,7.13
2023-01-22T20:48:47.591Z,7.60
2023-01-22T20:51:16.595Z,6.22
2023-01-22T20:53:44.238Z,7.80
2023-01-22T20:56:26.955Z,7.28
2023-01-22T20:58:58.631Z,7.32
2023-01-22T21:01:25.482Z,6.57
2023-01-22T21:03:55.800Z,6.43
2023-01-22T21:06:22.609Z,6.30
2023-01-22T21:08:52.415Z,8.05
2023-01-22T21:11:20.786Z,9.05
2023-01-22T21:13:49.167Z,11.25
2023-01-22T21:16:18.942Z,12.85
2023-01-22T21:18:46.686Z,12.18
2023-01-22T21:21:18.634Z,9.43
2023-01-22T21:23:48.903Z,10.27
2023-01-22T21:26:19.082Z,8.55
2023-01-22T21:28:48.443Z,10.70
2023-01-22T21:31:18.311Z,10.60
2023-01-22T21:33:48.665Z,9.70
2023-01-22T21:36:18.244Z,9.43
2023-01-22T21:38:47.846Z,8.38
2023-01-22T21:41:16.954Z,9.30
2023-01-22T21:44:04.258Z,7.75
2023-01-22T21:46:42.508Z,7.72
2023-01-22T21:49:19.909Z,7.22
2023-01-22T21:51:52.050Z,7.35
2023-01-22T21:54:22.033Z,7.60
2023-01-22T21:56:49.185Z,8.18
2023-01-22T21:59:15.884Z,8.20
2023-01-22T22:01:43.093Z,7.05
2023-01-22T22:04:10.098Z,6.50
2023-01-22T22:06:39.586Z,7.18
2023-01-22T22:09:10.583Z,6.97
2023-01-22T22:11:37.110Z,7.15
2023-01-22T22:14:05.700Z,8.07
2023-01-22T22:16:36.119Z,6.63
2023-01-22T22:19:02.663Z,6.88
2023-01-22T22:21:29.053Z,7.05
2023-01-22T22:23:58.016Z,6.35
2023-01-22T22:26:27.564Z,6.38
2023-01-22T22:28:54.287Z,7.13
2023-01-22T22:31:23.151Z,6.68
2023-01-22T22:33:52.285Z,6.10
2023-01-22T22:36:22.008Z,6.15
2023-01-22T22:38:54.092Z,6.43
2023-01-22T22:41:26.530Z,6.75
2023-01-22T22:43:54.603Z,7.13
2023-01-22T22:46:22.998Z,6.50
2023-01-22T22:48:50.114Z,7.70
2023-01-22T22:51:27.307Z,6.30
2023-01-22T22:53:56.929Z,6.88
2023-01-22T22:56:24.308Z,7.38
2023-01-22T22:58:51.872Z,5.80
2023-01-22T23:01:21.546Z,6.93
2023-01-22T23:03:48.550Z,6.05
2023-01-22T23:06:21.324Z,6.28
2023-01-22T23:08:58.398Z,6.00
2023-01-22T23:11:27.192Z,7.05
2023-01-22T23:13:54.096Z,6.47
2023-01-22T23:16:22.778Z,6.82
2023-01-22T23:18:53.857Z,6.68
2023-01-22T23:21:25.019Z,5.97
2023-01-22T23:23:52.381Z,5.97
2023-01-22T23:26:22.938Z,6.93
2023-01-22T23:28:51.927Z,6.22
2023-01-22T23:31:18.709Z,6.63
2023-01-22T23:33:45.418Z,5.97
2023-01-22T23:36:14.692Z,6.40
2023-01-22T23:38:41.194Z,6.00
2023-01-22T23:41:09.928Z,6.00
2023-01-22T23:43:39.443Z,7.18
2023-01-22T23:46:10.862Z,7.28
2023-01-22T23:48:37.653Z,7.10
2023-01-22T23:51:06.292Z,5.97
2023-01-22T23:53:35.849Z,5.70
2023-01-22T23:56:04.003Z,6.57
2023-01-22T23:58:30.644Z,6.03
